sensor_id;sensor_type;location;lat;lon;timestamp;P1;durP1;ratioP1;P2;durP2;ratioP2
13651;SDS011;6899;51.546;6.912;2022-10-16T00:01:08;16.15;;;9.23;;
13651;SDS011;6899;51.546;6.912;2022-10-16T00:03:36;12.52;;;8.77;;
13651;SDS011;6899;51.546;6.912;2022-10-16T00:06:04;16.00;;;8.75;;
13651;SDS011;6899;51.546;6.912;2022-10-16T00:08:31;14.35;;;8.40;;
13651;SDS011;6899;51.546;6.912;2022-10-16T00:10:59;11.93;;;8.00;;
13651;SDS011;6899;51.546;6.912;2022-10-16T00:13:27;10.82;;;8.13;;
13651;SDS011;6899;51.546;6.912;2022-10-16T00:15:54;11.70;;;7.82;;
13651;SDS011;6899;51.546;6.912;2022-10-16T00:18:23;12.10;;;8.13;;
13651;SDS011;6899;51.546;6.912;2022-10-16T00:20:51;14.07;;;9.00;;
13651;SDS011;6899;51.546;6.912;2022-10-16T00:23:18;15.10;;;8.70;;
13651;SDS011;6899;51.546;6.912;2022-10-16T00:25:53;15.05;;;9.18;;
13651;SDS011;6899;51.546;6.912;2022-10-16T00:28:21;15.32;;;9.88;;
13651;SDS011;6899;51.546;6.912;2022-10-16T00:30:49;13.32;;;9.13;;
13651;SDS011;6899;51.546;6.912;2022-10-16T00:33:15;14.73;;;9.75;;
13651;SDS011;6899;51.546;6.912;2022-10-16T00:35:44;15.68;;;10.40;;
13651;SDS011;6899;51.546;6.912;2022-10-16T00:38:11;16.00;;;10.43;;
13651;SDS011;6899;51.546;6.912;2022-10-16T00:40:37;15.60;;;10.35;;
13651;SDS011;6899;51.546;6.912;2022-10-16T00:43:07;13.95;;;10.25;;
13651;SDS011;6899;51.546;6.912;2022-10-16T00:45:39;18.95;;;10.70;;
13651;SDS011;6899;51.546;6.912;2022-10-16T00:48:06;18.40;;;11.02;;
13651;SDS011;6899;51.546;6.912;2022-10-16T00:50:40;14.95;;;10.05;;
13651;SDS011;6899;51.546;6.912;2022-10-16T00:53:10;16.52;;;10.68;;
13651;SDS011;6899;51.546;6.912;2022-10-16T00:55:38;18.45;;;11.05;;
13651;SDS011;6899;51.546;6.912;2022-10-16T00:58:05;18.35;;;10.27;;
13651;SDS011;6899;51.546;6.912;2022-10-16T01:00:32;17.98;;;10.95;;
13651;SDS011;6899;51.546;6.912;2022-10-16T01:02:59;17.08;;;11.02;;
13651;SDS011;6899;51.546;6.912;2022-10-16T01:05:34;17.50;;;10.85;;
13651;SDS011;6899;51.546;6.912;2022-10-16T01:08:11;16.17;;;10.80;;
13651;SDS011;6899;51.546;6.912;2022-10-16T01:10:45;17.80;;;10.75;;
13651;SDS011;6899;51.546;6.912;2022-10-16T01:13:24;21.45;;;10.93;;
13651;SDS011;6899;51.546;6.912;2022-10-16T01:16:00;14.77;;;10.63;;
13651;SDS011;6899;51.546;6.912;2022-10-16T01:18:33;14.82;;;10.65;;
13651;SDS011;6899;51.546;6.912;2022-10-16T01:21:05;14.43;;;9.48;;
13651;SDS011;6899;51.546;6.912;2022-10-16T01:23:38;12.70;;;9.27;;
13651;SDS011;6899;51.546;6.912;2022-10-16T01:26:20;14.75;;;8.98;;
13651;SDS011;6899;51.546;6.912;2022-10-16T01:28:59;16.00;;;10.68;;
13651;SDS011;6899;51.546;6.912;2022-10-16T01:31:32;15.02;;;9.25;;
13651;SDS011;6899;51.546;6.912;2022-10-16T01:34:02;13.63;;;9.80;;
13651;SDS011;6899;51.546;6.912;2022-10-16T01:36:35;13.93;;;10.13;;
13651;SDS011;6899;51.546;6.912;2022-10-16T01:39:04;16.77;;;10.55;;
13651;SDS011;6899;51.546;6.912;2022-10-16T01:41:36;18.10;;;9.35;;
13651;SDS011;6899;51.546;6.912;2022-10-16T01:44:08;15.02;;;9.65;;
13651;SDS011;6899;51.546;6.912;2022-10-16T01:46:41;17.70;;;10.55;;
13651;SDS011;6899;51.546;6.912;2022-10-16T01:49:11;18.98;;;10.57;;
13651;SDS011;6899;51.546;6.912;2022-10-16T01:51:39;15.93;;;9.30;;
13651;SDS011;6899;51.546;6.912;2022-10-16T01:54:07;13.27;;;9.38;;
13651;SDS011;6899;51.546;6.912;2022-10-16T01:56:35;14.50;;;9.73;;
13651;SDS011;6899;51.546;6.912;2022-10-16T01:59:05;14.35;;;8.82;;
13651;SDS011;6899;51.546;6.912;2022-10-16T02:01:38;13.25;;;8.00;;
13651;SDS011;6899;51.546;6.912;2022-10-16T02:04:09;15.70;;;8.68;;
13651;SDS011;6899;51.546;6.912;2022-10-16T02:06:41;13.40;;;8.75;;
13651;SDS011;6899;51.546;6.912;2022-10-16T02:09:08;10.35;;;7.85;;
13651;SDS011;6899;51.546;6.912;2022-10-16T02:11:35;11.27;;;7.95;;
13651;SDS011;6899;51.546;6.912;2022-10-16T02:14:03;11.10;;;8.48;;
13651;SDS011;6899;51.546;6.912;2022-10-16T02:16:36;13.60;;;8.35;;
13651;SDS011;6899;51.546;6.912;2022-10-16T02:19:05;10.65;;;7.47;;
13651;SDS011;6899;51.546;6.912;2022-10-16T02:21:34;12.48;;;8.00;;
13651;SDS011;6899;51.546;6.912;2022-10-16T02:24:08;9.20;;;7.82;;
13651;SDS011;6899;51.546;6.912;2022-10-16T02:26:43;10.15;;;6.88;;
13651;SDS011;6899;51.546;6.912;2022-10-16T02:29:16;11.45;;;7.07;;
13651;SDS011;6899;51.546;6.912;2022-10-16T02:31:50;11.35;;;6.68;;
13651;SDS011;6899;51.546;6.912;2022-10-16T02:34:21;8.75;;;6.05;;
13651;SDS011;6899;51.546;6.912;2022-10-16T02:36:52;8.38;;;5.95;;
13651;SDS011;6899;51.546;6.912;2022-10-16T02:39:20;7.38;;;5.85;;
13651;SDS011;6899;51.546;6.912;2022-10-16T02:41:48;7.40;;;5.43;;
13651;SDS011;6899;51.546;6.912;2022-10-16T02:44:15;7.75;;;5.78;;
13651;SDS011;6899;51.546;6.912;2022-10-16T02:46:42;7.40;;;4.95;;
13651;SDS011;6899;51.546;6.912;2022-10-16T02:49:10;7.20;;;5.40;;
13651;SDS011;6899;51.546;6.912;2022-10-16T02:51:37;9.00;;;5.47;;
13651;SDS011;6899;51.546;6.912;2022-10-16T02:54:04;6.68;;;4.95;;
13651;SDS011;6899;51.546;6.912;2022-10-16T02:56:31;6.13;;;5.20;;
13651;SDS011;6899;51.546;6.912;2022-10-16T02:58:58;8.57;;;5.38;;
13651;SDS011;6899;51.546;6.912;2022-10-16T03:01:25;8.75;;;4.80;;
13651;SDS011;6899;51.546;6.912;2022-10-16T03:03:51;7.40;;;5.50;;
13651;SDS011;6899;51.546;6.912;2022-10-16T03:06:21;6.90;;;5.57;;
13651;SDS011;6899;51.546;6.912;2022-10-16T03:08:48;7.47;;;5.18;;
13651;SDS011;6899;51.546;6.912;2022-10-16T03:11:15;8.35;;;4.93;;
13651;SDS011;6899;51.546;6.912;2022-10-16T03:13:42;8.32;;;4.93;;
13651;SDS011;6899;51.546;6.912;2022-10-16T03:16:09;6.50;;;4.53;;
13651;SDS011;6899;51.546;6.912;2022-10-16T03:18:36;7.95;;;4.55;;
13651;SDS011;6899;51.546;6.912;2022-10-16T03:21:03;9.10;;;4.68;;
13651;SDS011;6899;51.546;6.912;2022-10-16T03:23:31;6.60;;;4.75;;
13651;SDS011;6899;51.546;6.912;2022-10-16T03:25:58;6.43;;;4.43;;
13651;SDS011;6899;51.546;6.912;2022-10-16T03:28:25;6.88;;;4.45;;
13651;SDS011;6899;51.546;6.912;2022-10-16T03:30:52;5.00;;;4.40;;
13651;SDS011;6899;51.546;6.912;2022-10-16T03:33:19;5.35;;;4.10;;
13651;SDS011;6899;51.546;6.912;2022-10-16T03:35:50;5.95;;;4.20;;
13651;SDS011;6899;51.546;6.912;2022-10-16T03:38:18;7.97;;;4.22;;
13651;SDS011;6899;51.546;6.912;2022-10-16T03:40:46;5.32;;;3.85;;
13651;SDS011;6899;51.546;6.912;2022-10-16T03:43:13;5.90;;;4.30;;
13651;SDS011;6899;51.546;6.912;2022-10-16T03:45:40;5.00;;;4.05;;
13651;SDS011;6899;51.546;6.912;2022-10-16T03:48:06;4.25;;;3.85;;
13651;SDS011;6899;51.546;6.912;2022-10-16T03:50:33;5.90;;;4.03;;
13651;SDS011;6899;51.546;6.912;2022-10-16T03:53:00;4.72;;;3.58;;
13651;SDS011;6899;51.546;6.912;2022-10-16T03:55:27;5.47;;;3.50;;
13651;SDS011;6899;51.546;6.912;2022-10-16T03:57:55;12.13;;;3.63;;
13651;SDS011;6899;51.546;6.912;2022-10-16T04:00:22;5.25;;;3.03;;
13651;SDS011;6899;51.546;6.912;2022-10-16T04:02:49;8.48;;;3.75;;
13651;SDS011;6899;51.546;6.912;2022-10-16T04:05:15;6.38;;;3.90;;
13651;SDS011;6899;51.546;6.912;2022-10-16T04:07:42;5.60;;;3.85;;
13651;SDS011;6899;51.546;6.912;2022-10-16T04:10:09;6.15;;;3.17;;
13651;SDS011;6899;51.546;6.912;2022-10-16T04:12:36;4.53;;;3.85;;
13651;SDS011;6899;51.546;6.912;2022-10-16T04:15:05;6.90;;;3.72;;
13651;SDS011;6899;51.546;6.912;2022-10-16T04:17:32;4.10;;;3.60;;
13651;SDS011;6899;51.546;6.912;2022-10-16T04:19:59;4.80;;;3.70;;
13651;SDS011;6899;51.546;6.912;2022-10-16T04:22:26;3.53;;;3.22;;
13651;SDS011;6899;51.546;6.912;2022-10-16T04:24:53;4.75;;;3.63;;
13651;SDS011;6899;51.546;6.912;2022-10-16T04:27:19;5.70;;;3.40;;
13651;SDS011;6899;51.546;6.912;2022-10-16T04:29:46;4.93;;;3.15;;
13651;SDS011;6899;51.546;6.912;2022-10-16T04:32:14;3.42;;;3.13;;
13651;SDS011;6899;51.546;6.912;2022-10-16T04:34:41;3.47;;;3.17;;
13651;SDS011;6899;51.546;6.912;2022-10-16T04:37:08;4.95;;;3.67;;
13651;SDS011;6899;51.546;6.912;2022-10-16T04:39:35;7.70;;;3.30;;
13651;SDS011;6899;51.546;6.912;2022-10-16T04:42:02;5.35;;;3.20;;
13651;SDS011;6899;51.546;6.912;2022-10-16T04:44:29;3.67;;;3.15;;
13651;SDS011;6899;51.546;6.912;2022-10-16T04:46:56;4.45;;;3.40;;
13651;SDS011;6899;51.546;6.912;2022-10-16T04:49:24;4.03;;;3.38;;
13651;SDS011;6899;51.546;6.912;2022-10-16T04:51:51;4.22;;;3.63;;
13651;SDS011;6899;51.546;6.912;2022-10-16T04:54:18;7.35;;;3.80;;
13651;SDS011;6899;51.546;6.912;2022-10-16T04:56:45;5.07;;;3.72;;
13651;SDS011;6899;51.546;6.912;2022-10-16T04:59:13;4.88;;;3.88;;
13651;SDS011;6899;51.546;6.912;2022-10-16T05:01:40;5.10;;;3.40;;
13651;SDS011;6899;51.546;6.912;2022-10-16T05:04:07;4.40;;;3.50;;
13651;SDS011;6899;51.546;6.912;2022-10-16T05:06:36;4.35;;;3.40;;
13651;SDS011;6899;51.546;6.912;2022-10-16T05:09:03;5.38;;;3.70;;
13651;SDS011;6899;51.546;6.912;2022-10-16T05:11:30;3.70;;;3.17;;
13651;SDS011;6899;51.546;6.912;2022-10-16T05:13:57;4.22;;;3.65;;
13651;SDS011;6899;51.546;6.912;2022-10-16T05:16:24;4.15;;;3.40;;
13651;SDS011;6899;51.546;6.912;2022-10-16T05:18:51;3.60;;;3.30;;
13651;SDS011;6899;51.546;6.912;2022-10-16T05:21:19;3.45;;;3.15;;
13651;SDS011;6899;51.546;6.912;2022-10-16T05:23:47;6.93;;;3.75;;
13651;SDS011;6899;51.546;6.912;2022-10-16T05:26:14;6.40;;;3.75;;
13651;SDS011;6899;51.546;6.912;2022-10-16T05:28:41;5.70;;;3.90;;
13651;SDS011;6899;51.546;6.912;2022-10-16T05:31:08;4.70;;;3.58;;
13651;SDS011;6899;51.546;6.912;2022-10-16T05:33:36;7.07;;;3.65;;
13651;SDS011;6899;51.546;6.912;2022-10-16T05:36:03;5.32;;;3.22;;
13651;SDS011;6899;51.546;6.912;2022-10-16T05:38:32;5.15;;;3.42;;
13651;SDS011;6899;51.546;6.912;2022-10-16T05:41:02;4.43;;;3.17;;
13651;SDS011;6899;51.546;6.912;2022-10-16T05:43:30;3.95;;;3.47;;
13651;SDS011;6899;51.546;6.912;2022-10-16T05:45:58;4.40;;;3.63;;
13651;SDS011;6899;51.546;6.912;2022-10-16T05:48:27;4.85;;;3.50;;
13651;SDS011;6899;51.546;6.912;2022-10-16T05:50:57;5.75;;;3.97;;
13651;SDS011;6899;51.546;6.912;2022-10-16T05:53:25;4.10;;;3.65;;
13651;SDS011;6899;51.546;6.912;2022-10-16T05:55:53;6.35;;;3.80;;
13651;SDS011;6899;51.546;6.912;2022-10-16T05:58:22;4.95;;;3.17;;
13651;SDS011;6899;51.546;6.912;2022-10-16T06:00:53;4.97;;;3.60;;
13651;SDS011;6899;51.546;6.912;2022-10-16T06:03:20;4.28;;;3.70;;
13651;SDS011;6899;51.546;6.912;2022-10-16T06:05:48;5.60;;;3.30;;
13651;SDS011;6899;51.546;6.912;2022-10-16T06:08:14;5.28;;;3.95;;
13651;SDS011;6899;51.546;6.912;2022-10-16T06:10:41;4.78;;;3.65;;
13651;SDS011;6899;51.546;6.912;2022-10-16T06:13:09;5.90;;;4.10;;
13651;SDS011;6899;51.546;6.912;2022-10-16T06:15:38;4.38;;;3.90;;
13651;SDS011;6899;51.546;6.912;2022-10-16T06:18:06;5.65;;;4.68;;
13651;SDS011;6899;51.546;6.912;2022-10-16T06:20:33;4.32;;;3.65;;
13651;SDS011;6899;51.546;6.912;2022-10-16T06:23:00;6.03;;;4.45;;
13651;SDS011;6899;51.546;6.912;2022-10-16T06:25:29;6.07;;;3.80;;
13651;SDS011;6899;51.546;6.912;2022-10-16T06:27:56;6.70;;;4.32;;
13651;SDS011;6899;51.546;6.912;2022-10-16T06:30:22;5.57;;;4.00;;
13651;SDS011;6899;51.546;6.912;2022-10-16T06:32:51;6.20;;;3.78;;
13651;SDS011;6899;51.546;6.912;2022-10-16T06:35:17;4.05;;;3.65;;
13651;SDS011;6899;51.546;6.912;2022-10-16T06:37:44;5.43;;;3.97;;
13651;SDS011;6899;51.546;6.912;2022-10-16T06:40:11;4.07;;;3.67;;
13651;SDS011;6899;51.546;6.912;2022-10-16T06:42:39;7.13;;;4.60;;
13651;SDS011;6899;51.546;6.912;2022-10-16T06:45:06;5.30;;;3.70;;
13651;SDS011;6899;51.546;6.912;2022-10-16T06:47:34;4.65;;;3.88;;
13651;SDS011;6899;51.546;6.912;2022-10-16T06:50:02;6.45;;;3.95;;
13651;SDS011;6899;51.546;6.912;2022-10-16T06:52:31;7.30;;;5.20;;
13651;SDS011;6899;51.546;6.912;2022-10-16T06:54:58;7.85;;;6.15;;
13651;SDS011;6899;51.546;6.912;2022-10-16T06:57:25;6.57;;;4.00;;
13651;SDS011;6899;51.546;6.912;2022-10-16T06:59:52;7.95;;;5.47;;
13651;SDS011;6899;51.546;6.912;2022-10-16T07:02:19;7.15;;;4.88;;
13651;SDS011;6899;51.546;6.912;2022-10-16T07:04:46;5.95;;;5.35;;
13651;SDS011;6899;51.546;6.912;2022-10-16T07:07:14;6.68;;;4.57;;
13651;SDS011;6899;51.546;6.912;2022-10-16T07:09:41;7.15;;;4.22;;
13651;SDS011;6899;51.546;6.912;2022-10-16T07:12:08;6.05;;;4.15;;
13651;SDS011;6899;51.546;6.912;2022-10-16T07:14:35;4.35;;;3.60;;
13651;SDS011;6899;51.546;6.912;2022-10-16T07:17:02;4.68;;;4.18;;
13651;SDS011;6899;51.546;6.912;2022-10-16T07:19:29;6.20;;;4.35;;
13651;SDS011;6899;51.546;6.912;2022-10-16T07:21:55;7.00;;;4.30;;
13651;SDS011;6899;51.546;6.912;2022-10-16T07:24:25;5.57;;;4.32;;
13651;SDS011;6899;51.546;6.912;2022-10-16T07:26:52;5.00;;;4.50;;
13651;SDS011;6899;51.546;6.912;2022-10-16T07:29:19;6.80;;;4.93;;
13651;SDS011;6899;51.546;6.912;2022-10-16T07:31:47;7.38;;;5.38;;
13651;SDS011;6899;51.546;6.912;2022-10-16T07:34:15;6.65;;;5.00;;
13651;SDS011;6899;51.546;6.912;2022-10-16T07:36:44;5.28;;;4.82;;
13651;SDS011;6899;51.546;6.912;2022-10-16T07:39:13;5.47;;;3.83;;
13651;SDS011;6899;51.546;6.912;2022-10-16T07:41:41;6.20;;;4.78;;
13651;SDS011;6899;51.546;6.912;2022-10-16T07:44:08;6.32;;;4.53;;
13651;SDS011;6899;51.546;6.912;2022-10-16T07:46:35;7.32;;;4.07;;
13651;SDS011;6899;51.546;6.912;2022-10-16T07:49:02;7.60;;;4.05;;
13651;SDS011;6899;51.546;6.912;2022-10-16T07:51:29;7.20;;;4.53;;
13651;SDS011;6899;51.546;6.912;2022-10-16T07:53:56;9.48;;;6.28;;
13651;SDS011;6899;51.546;6.912;2022-10-16T07:56:23;4.70;;;4.20;;
13651;SDS011;6899;51.546;6.912;2022-10-16T07:58:52;7.68;;;4.47;;
13651;SDS011;6899;51.546;6.912;2022-10-16T08:01:19;3.60;;;3.30;;
13651;SDS011;6899;51.546;6.912;2022-10-16T08:03:46;8.15;;;4.00;;
13651;SDS011;6899;51.546;6.912;2022-10-16T08:06:15;5.35;;;3.72;;
13651;SDS011;6899;51.546;6.912;2022-10-16T08:08:42;4.32;;;3.22;;
13651;SDS011;6899;51.546;6.912;2022-10-16T08:11:09;5.72;;;3.47;;
13651;SDS011;6899;51.546;6.912;2022-10-16T08:13:36;5.88;;;3.80;;
13651;SDS011;6899;51.546;6.912;2022-10-16T08:16:05;4.82;;;3.03;;
13651;SDS011;6899;51.546;6.912;2022-10-16T08:18:33;5.22;;;2.85;;
13651;SDS011;6899;51.546;6.912;2022-10-16T08:21:00;4.45;;;2.80;;
13651;SDS011;6899;51.546;6.912;2022-10-16T08:23:28;3.58;;;2.80;;
13651;SDS011;6899;51.546;6.912;2022-10-16T08:25:55;5.57;;;3.05;;
13651;SDS011;6899;51.546;6.912;2022-10-16T08:28:27;4.45;;;2.83;;
13651;SDS011;6899;51.546;6.912;2022-10-16T08:30:54;3.70;;;2.70;;
13651;SDS011;6899;51.546;6.912;2022-10-16T08:33:23;4.13;;;2.50;;
13651;SDS011;6899;51.546;6.912;2022-10-16T08:35:50;4.70;;;2.60;;
13651;SDS011;6899;51.546;6.912;2022-10-16T08:38:18;4.95;;;2.50;;
13651;SDS011;6899;51.546;6.912;2022-10-16T08:40:45;6.85;;;3.00;;
13651;SDS011;6899;51.546;6.912;2022-10-16T08:43:28;2.97;;;2.00;;
13651;SDS011;6899;51.546;6.912;2022-10-16T08:46:19;7.15;;;2.63;;
13651;SDS011;6899;51.546;6.912;2022-10-16T08:48:58;5.82;;;3.55;;
13651;SDS011;6899;51.546;6.912;2022-10-16T08:51:26;6.38;;;3.10;;
13651;SDS011;6899;51.546;6.912;2022-10-16T08:53:57;5.20;;;2.20;;
13651;SDS011;6899;51.546;6.912;2022-10-16T08:56:25;4.25;;;2.15;;
13651;SDS011;6899;51.546;6.912;2022-10-16T08:58:52;6.53;;;2.33;;
13651;SDS011;6899;51.546;6.912;2022-10-16T09:01:21;3.22;;;2.10;;
13651;SDS011;6899;51.546;6.912;2022-10-16T09:03:56;3.13;;;2.00;;
13651;SDS011;6899;51.546;6.912;2022-10-16T09:06:45;4.63;;;2.75;;
13651;SDS011;6899;51.546;6.912;2022-10-16T09:09:26;8.13;;;2.85;;
13651;SDS011;6899;51.546;6.912;2022-10-16T09:12:07;5.55;;;2.90;;
13651;SDS011;6899;51.546;6.912;2022-10-16T09:14:40;5.18;;;2.90;;
13651;SDS011;6899;51.546;6.912;2022-10-16T09:17:22;6.20;;;2.75;;
13651;SDS011;6899;51.546;6.912;2022-10-16T09:20:00;3.95;;;2.17;;
13651;SDS011;6899;51.546;6.912;2022-10-16T09:22:38;7.38;;;2.45;;
13651;SDS011;6899;51.546;6.912;2022-10-16T09:25:10;4.78;;;2.58;;
13651;SDS011;6899;51.546;6.912;2022-10-16T09:27:39;3.53;;;2.22;;
13651;SDS011;6899;51.546;6.912;2022-10-16T09:30:10;3.67;;;2.15;;
13651;SDS011;6899;51.546;6.912;2022-10-16T09:32:39;5.00;;;2.50;;
13651;SDS011;6899;51.546;6.912;2022-10-16T09:35:10;3.63;;;2.10;;
13651;SDS011;6899;51.546;6.912;2022-10-16T09:37:40;4.68;;;1.80;;
13651;SDS011;6899;51.546;6.912;2022-10-16T09:40:12;3.83;;;2.20;;
13651;SDS011;6899;51.546;6.912;2022-10-16T09:42:39;4.22;;;2.10;;
13651;SDS011;6899;51.546;6.912;2022-10-16T09:45:18;3.05;;;1.67;;
13651;SDS011;6899;51.546;6.912;2022-10-16T09:47:47;3.63;;;1.40;;
13651;SDS011;6899;51.546;6.912;2022-10-16T09:50:23;3.47;;;1.75;;
13651;SDS011;6899;51.546;6.912;2022-10-16T09:53:05;3.75;;;1.40;;
13651;SDS011;6899;51.546;6.912;2022-10-16T09:55:47;5.32;;;1.52;;
13651;SDS011;6899;51.546;6.912;2022-10-16T09:58:14;2.55;;;1.38;;
13651;SDS011;6899;51.546;6.912;2022-10-16T10:00:41;3.78;;;1.40;;
13651;SDS011;6899;51.546;6.912;2022-10-16T10:03:17;3.50;;;1.77;;
13651;SDS011;6899;51.546;6.912;2022-10-16T10:06:01;4.28;;;1.92;;
13651;SDS011;6899;51.546;6.912;2022-10-16T10:08:33;2.63;;;1.58;;
13651;SDS011;6899;51.546;6.912;2022-10-16T10:11:03;2.28;;;1.63;;
13651;SDS011;6899;51.546;6.912;2022-10-16T10:13:29;5.18;;;1.70;;
13651;SDS011;6899;51.546;6.912;2022-10-16T10:15:56;5.78;;;2.10;;
13651;SDS011;6899;51.546;6.912;2022-10-16T10:18:23;4.93;;;2.33;;
13651;SDS011;6899;51.546;6.912;2022-10-16T10:20:57;3.22;;;1.92;;
13651;SDS011;6899;51.546;6.912;2022-10-16T10:23:27;2.40;;;1.80;;
13651;SDS011;6899;51.546;6.912;2022-10-16T10:25:57;4.05;;;2.15;;
13651;SDS011;6899;51.546;6.912;2022-10-16T10:28:39;4.22;;;1.95;;
13651;SDS011;6899;51.546;6.912;2022-10-16T10:31:14;3.17;;;1.50;;
13651;SDS011;6899;51.546;6.912;2022-10-16T10:33:49;4.25;;;2.17;;
13651;SDS011;6899;51.546;6.912;2022-10-16T10:36:30;4.25;;;1.95;;
13651;SDS011;6899;51.546;6.912;2022-10-16T10:39:04;3.05;;;1.70;;
13651;SDS011;6899;51.546;6.912;2022-10-16T10:41:48;5.28;;;1.80;;
13651;SDS011;6899;51.546;6.912;2022-10-16T10:44:36;6.40;;;3.20;;
13651;SDS011;6899;51.546;6.912;2022-10-16T10:47:16;3.85;;;1.70;;
13651;SDS011;6899;51.546;6.912;2022-10-16T10:49:53;4.63;;;1.70;;
13651;SDS011;6899;51.546;6.912;2022-10-16T10:52:33;2.20;;;1.40;;
13651;SDS011;6899;51.546;6.912;2022-10-16T10:55:14;2.88;;;1.58;;
13651;SDS011;6899;51.546;6.912;2022-10-16T10:57:51;3.42;;;1.80;;
13651;SDS011;6899;51.546;6.912;2022-10-16T11:00:33;4.35;;;1.90;;
13651;SDS011;6899;51.546;6.912;2022-10-16T11:03:12;3.10;;;2.15;;
13651;SDS011;6899;51.546;6.912;2022-10-16T11:05:51;4.57;;;1.98;;
13651;SDS011;6899;51.546;6.912;2022-10-16T11:08:21;3.42;;;1.73;;
13651;SDS011;6899;51.546;6.912;2022-10-16T11:10:57;5.15;;;1.70;;
13651;SDS011;6899;51.546;6.912;2022-10-16T11:13:30;3.72;;;2.05;;
13651;SDS011;6899;51.546;6.912;2022-10-16T11:16:01;2.30;;;1.55;;
13651;SDS011;6899;51.546;6.912;2022-10-16T11:18:33;2.65;;;1.40;;
13651;SDS011;6899;51.546;6.912;2022-10-16T11:21:09;3.97;;;1.27;;
13651;SDS011;6899;51.546;6.912;2022-10-16T11:23:40;1.67;;;1.02;;
13651;SDS011;6899;51.546;6.912;2022-10-16T11:26:17;2.67;;;1.30;;
13651;SDS011;6899;51.546;6.912;2022-10-16T11:28:47;3.42;;;1.70;;
13651;SDS011;6899;51.546;6.912;2022-10-16T11:31:21;2.55;;;1.50;;
13651;SDS011;6899;51.546;6.912;2022-10-16T11:33:53;3.35;;;1.45;;
13651;SDS011;6899;51.546;6.912;2022-10-16T11:36:26;4.45;;;1.30;;
13651;SDS011;6899;51.546;6.912;2022-10-16T11:39:00;1.77;;;1.20;;
13651;SDS011;6899;51.546;6.912;2022-10-16T11:41:37;5.93;;;1.70;;
13651;SDS011;6899;51.546;6.912;2022-10-16T11:44:14;5.25;;;1.63;;
13651;SDS011;6899;51.546;6.912;2022-10-16T11:46:48;3.78;;;1.70;;
13651;SDS011;6899;51.546;6.912;2022-10-16T11:49:19;5.72;;;1.40;;
13651;SDS011;6899;51.546;6.912;2022-10-16T11:51:51;6.13;;;1.35;;
13651;SDS011;6899;51.546;6.912;2022-10-16T11:54:28;5.38;;;1.77;;
13651;SDS011;6899;51.546;6.912;2022-10-16T11:57:01;5.55;;;1.95;;
13651;SDS011;6899;51.546;6.912;2022-10-16T11:59:35;2.38;;;1.67;;
13651;SDS011;6899;51.546;6.912;2022-10-16T12:05:00;3.88;;;1.85;;
13651;SDS011;6899;51.546;6.912;2022-10-16T12:07:46;4.47;;;1.63;;
13651;SDS011;6899;51.546;6.912;2022-10-16T12:10:19;3.63;;;1.42;;
13651;SDS011;6899;51.546;6.912;2022-10-16T12:12:49;3.30;;;1.42;;
13651;SDS011;6899;51.546;6.912;2022-10-16T12:15:21;4.22;;;1.55;;
13651;SDS011;6899;51.546;6.912;2022-10-16T12:17:50;2.33;;;1.42;;
13651;SDS011;6899;51.546;6.912;2022-10-16T12:20:22;3.85;;;1.20;;
13651;SDS011;6899;51.546;6.912;2022-10-16T12:22:56;7.63;;;3.50;;
13651;SDS011;6899;51.546;6.912;2022-10-16T12:25:26;5.72;;;2.55;;
13651;SDS011;6899;51.546;6.912;2022-10-16T12:27:57;6.38;;;2.15;;
13651;SDS011;6899;51.546;6.912;2022-10-16T12:30:26;5.72;;;2.33;;
13651;SDS011;6899;51.546;6.912;2022-10-16T12:32:55;4.03;;;1.70;;
13651;SDS011;6899;51.546;6.912;2022-10-16T12:35:24;5.95;;;1.85;;
13651;SDS011;6899;51.546;6.912;2022-10-16T12:37:53;7.63;;;1.80;;
13651;SDS011;6899;51.546;6.912;2022-10-16T12:40:31;5.70;;;1.60;;
13651;SDS011;6899;51.546;6.912;2022-10-16T12:43:11;6.28;;;1.58;;
13651;SDS011;6899;51.546;6.912;2022-10-16T12:45:59;2.90;;;1.30;;
13651;SDS011;6899;51.546;6.912;2022-10-16T12:48:27;2.60;;;1.50;;
13651;SDS011;6899;51.546;6.912;2022-10-16T12:50:56;3.22;;;1.70;;
13651;SDS011;6899;51.546;6.912;2022-10-16T12:53:35;3.50;;;1.50;;
13651;SDS011;6899;51.546;6.912;2022-10-16T12:56:03;2.67;;;1.17;;
13651;SDS011;6899;51.546;6.912;2022-10-16T13:01:31;2.65;;;1.48;;
13651;SDS011;6899;51.546;6.912;2022-10-16T13:04:14;2.55;;;1.30;;
13651;SDS011;6899;51.546;6.912;2022-10-16T13:06:55;1.50;;;1.23;;
13651;SDS011;6899;51.546;6.912;2022-10-16T13:09:32;2.63;;;1.15;;
13651;SDS011;6899;51.546;6.912;2022-10-16T13:12:36;3.60;;;1.70;;
13651;SDS011;6899;51.546;6.912;2022-10-16T13:15:22;4.22;;;1.45;;
13651;SDS011;6899;51.546;6.912;2022-10-16T13:18:03;1.95;;;1.42;;
13651;SDS011;6899;51.546;6.912;2022-10-16T13:20:38;3.95;;;1.60;;
13651;SDS011;6899;51.546;6.912;2022-10-16T13:23:19;2.55;;;1.02;;
13651;SDS011;6899;51.546;6.912;2022-10-16T13:25:56;3.08;;;1.67;;
13651;SDS011;6899;51.546;6.912;2022-10-16T13:28:32;3.67;;;1.30;;
13651;SDS011;6899;51.546;6.912;2022-10-16T13:31:03;2.60;;;1.33;;
13651;SDS011;6899;51.546;6.912;2022-10-16T13:33:32;2.70;;;1.50;;
13651;SDS011;6899;51.546;6.912;2022-10-16T13:36:01;2.40;;;1.13;;
13651;SDS011;6899;51.546;6.912;2022-10-16T13:38:29;2.83;;;1.23;;
13651;SDS011;6899;51.546;6.912;2022-10-16T13:40:58;4.57;;;2.08;;
13651;SDS011;6899;51.546;6.912;2022-10-16T13:43:27;2.72;;;1.60;;
13651;SDS011;6899;51.546;6.912;2022-10-16T13:45:58;2.75;;;1.20;;
13651;SDS011;6899;51.546;6.912;2022-10-16T13:48:28;3.45;;;1.73;;
13651;SDS011;6899;51.546;6.912;2022-10-16T13:51:02;5.13;;;2.63;;
13651;SDS011;6899;51.546;6.912;2022-10-16T13:53:32;2.63;;;1.38;;
13651;SDS011;6899;51.546;6.912;2022-10-16T13:56:01;3.63;;;1.80;;
13651;SDS011;6899;51.546;6.912;2022-10-16T13:58:29;3.55;;;2.08;;
13651;SDS011;6899;51.546;6.912;2022-10-16T14:00:57;4.03;;;1.83;;
13651;SDS011;6899;51.546;6.912;2022-10-16T14:03:28;3.55;;;1.73;;
13651;SDS011;6899;51.546;6.912;2022-10-16T14:05:57;3.03;;;1.40;;
13651;SDS011;6899;51.546;6.912;2022-10-16T14:08:26;4.22;;;1.73;;
13651;SDS011;6899;51.546;6.912;2022-10-16T14:10:56;6.00;;;2.10;;
13651;SDS011;6899;51.546;6.912;2022-10-16T14:13:27;2.95;;;1.77;;
13651;SDS011;6899;51.546;6.912;2022-10-16T14:15:57;2.60;;;1.73;;
13651;SDS011;6899;51.546;6.912;2022-10-16T14:18:33;3.83;;;1.67;;
13651;SDS011;6899;51.546;6.912;2022-10-16T14:21:04;4.75;;;2.28;;
13651;SDS011;6899;51.546;6.912;2022-10-16T14:23:34;5.82;;;2.15;;
13651;SDS011;6899;51.546;6.912;2022-10-16T14:26:13;4.60;;;1.88;;
13651;SDS011;6899;51.546;6.912;2022-10-16T14:28:42;4.50;;;2.35;;
13651;SDS011;6899;51.546;6.912;2022-10-16T14:31:26;3.17;;;1.67;;
13651;SDS011;6899;51.546;6.912;2022-10-16T14:33:55;4.35;;;1.70;;
13651;SDS011;6899;51.546;6.912;2022-10-16T14:36:23;2.50;;;1.30;;
13651;SDS011;6899;51.546;6.912;2022-10-16T14:38:59;2.90;;;1.42;;
13651;SDS011;6899;51.546;6.912;2022-10-16T14:41:29;3.60;;;1.35;;
13651;SDS011;6899;51.546;6.912;2022-10-16T14:43:57;4.80;;;1.50;;
13651;SDS011;6899;51.546;6.912;2022-10-16T14:46:29;2.80;;;1.80;;
13651;SDS011;6899;51.546;6.912;2022-10-16T14:49:02;4.32;;;1.90;;
13651;SDS011;6899;51.546;6.912;2022-10-16T14:51:39;2.58;;;1.35;;
13651;SDS011;6899;51.546;6.912;2022-10-16T14:54:12;5.05;;;1.80;;
13651;SDS011;6899;51.546;6.912;2022-10-16T14:56:42;5.75;;;2.97;;
13651;SDS011;6899;51.546;6.912;2022-10-16T14:59:14;5.13;;;2.88;;
13651;SDS011;6899;51.546;6.912;2022-10-16T15:01:43;6.15;;;2.45;;
13651;SDS011;6899;51.546;6.912;2022-10-16T15:04:12;8.55;;;4.88;;
13651;SDS011;6899;51.546;6.912;2022-10-16T15:06:39;6.70;;;3.88;;
13651;SDS011;6899;51.546;6.912;2022-10-16T15:09:06;2.70;;;1.77;;
13651;SDS011;6899;51.546;6.912;2022-10-16T15:11:33;5.10;;;2.20;;
13651;SDS011;6899;51.546;6.912;2022-10-16T15:14:00;3.40;;;1.70;;
13651;SDS011;6899;51.546;6.912;2022-10-16T15:16:28;4.03;;;2.67;;
13651;SDS011;6899;51.546;6.912;2022-10-16T15:18:55;5.45;;;2.92;;
13651;SDS011;6899;51.546;6.912;2022-10-16T15:21:24;5.85;;;2.40;;
13651;SDS011;6899;51.546;6.912;2022-10-16T15:23:53;4.13;;;1.95;;